sensor_id;sensor_type;location;lat;lon;timestamp;temperature;humidity
27561;DHT22;15003;47.476;11.990;2022-08-05T00:02:11;28.40;48.00
27561;DHT22;15003;47.476;11.990;2022-08-05T00:04:37;28.40;48.00
27561;DHT22;15003;47.476;11.990;2022-08-05T00:07:02;28.30;48.00
27561;DHT22;15003;47.476;11.990;2022-08-05T00:09:28;28.30;48.00
27561;DHT22;15003;47.476;11.990;2022-08-05T00:11:54;28.30;48.10
27561;DHT22;15003;47.476;11.990;2022-08-05T00:14:20;28.20;48.10
27561;DHT22;15003;47.476;11.990;2022-08-05T00:16:45;28.20;48.10
27561;DHT22;15003;47.476;11.990;2022-08-05T00:19:11;28.20;48.10
27561;DHT22;15003;47.476;11.990;2022-08-05T00:21:37;28.10;48.10
27561;DHT22;15003;47.476;11.990;2022-08-05T00:24:03;28.10;48.30
27561;DHT22;15003;47.476;11.990;2022-08-05T00:26:29;28.00;48.40
27561;DHT22;15003;47.476;11.990;2022-08-05T00:28:55;27.90;48.50
27561;DHT22;15003;47.476;11.990;2022-08-05T00:31:21;27.90;48.70
27561;DHT22;15003;47.476;11.990;2022-08-05T00:33:46;27.80;48.90
27561;DHT22;15003;47.476;11.990;2022-08-05T00:36:12;27.80;49.00
27561;DHT22;15003;47.476;11.990;2022-08-05T00:38:38;27.70;49.00
27561;DHT22;15003;47.476;11.990;2022-08-05T00:41:04;27.70;49.10
27561;DHT22;15003;47.476;11.990;2022-08-05T00:43:30;27.60;49.20
27561;DHT22;15003;47.476;11.990;2022-08-05T00:45:56;27.60;49.40
27561;DHT22;15003;47.476;11.990;2022-08-05T00:48:22;27.50;49.50
27561;DHT22;15003;47.476;11.990;2022-08-05T00:50:49;27.50;49.70
27561;DHT22;15003;47.476;11.990;2022-08-05T00:53:19;27.40;49.90
27561;DHT22;15003;47.476;11.990;2022-08-05T00:55:48;27.40;50.10
27561;DHT22;15003;47.476;11.990;2022-08-05T00:58:15;27.40;50.20
27561;DHT22;15003;47.476;11.990;2022-08-05T01:00:42;27.30;50.20
27561;DHT22;15003;47.476;11.990;2022-08-05T01:03:08;27.30;50.20
27561;DHT22;15003;47.476;11.990;2022-08-05T01:05:34;27.30;50.30
27561;DHT22;15003;47.476;11.990;2022-08-05T01:08:00;27.30;50.40
27561;DHT22;15003;47.476;11.990;2022-08-05T01:10:48;27.30;50.50
27561;DHT22;15003;47.476;11.990;2022-08-05T01:15:57;27.30;50.80
27561;DHT22;15003;47.476;11.990;2022-08-05T01:18:30;27.30;50.70
27561;DHT22;15003;47.476;11.990;2022-08-05T01:29:57;27.20;50.50
27561;DHT22;15003;47.476;11.990;2022-08-05T01:32:27;27.20;50.70
27561;DHT22;15003;47.476;11.990;2022-08-05T01:34:59;27.20;50.70
27561;DHT22;15003;47.476;11.990;2022-08-05T01:39:59;27.10;50.80
27561;DHT22;15003;47.476;11.990;2022-08-05T01:42:26;27.10;51.00
27561;DHT22;15003;47.476;11.990;2022-08-05T01:44:56;27.10;51.00
27561;DHT22;15003;47.476;11.990;2022-08-05T01:47:24;27.10;51.10
27561;DHT22;15003;47.476;11.990;2022-08-05T01:49:52;27.10;51.20
27561;DHT22;15003;47.476;11.990;2022-08-05T01:52:20;27.10;51.30
27561;DHT22;15003;47.476;11.990;2022-08-05T01:54:53;27.10;51.20
27561;DHT22;15003;47.476;11.990;2022-08-05T01:57:29;27.10;51.20
27561;DHT22;15003;47.476;11.990;2022-08-05T02:00:02;27.10;51.00
27561;DHT22;15003;47.476;11.990;2022-08-05T02:02:31;27.10;51.00
27561;DHT22;15003;47.476;11.990;2022-08-05T02:04:59;27.10;51.00
27561;DHT22;15003;47.476;11.990;2022-08-05T02:07:26;27.10;51.10
27561;DHT22;15003;47.476;11.990;2022-08-05T02:09:52;27.10;51.00
27561;DHT22;15003;47.476;11.990;2022-08-05T02:15:08;27.00;51.00
27561;DHT22;15003;47.476;11.990;2022-08-05T02:17:41;27.00;51.30
27561;DHT22;15003;47.476;11.990;2022-08-05T02:20:25;27.00;51.20
27561;DHT22;15003;47.476;11.990;2022-08-05T02:23:07;27.00;51.40
27561;DHT22;15003;47.476;11.990;2022-08-05T02:25:35;27.00;51.80
27561;DHT22;15003;47.476;11.990;2022-08-05T02:28:06;27.00;51.50
27561;DHT22;15003;47.476;11.990;2022-08-05T02:30:49;26.90;51.50
27561;DHT22;15003;47.476;11.990;2022-08-05T02:33:19;26.90;51.80
27561;DHT22;15003;47.476;11.990;2022-08-05T02:35:45;26.90;51.70
27561;DHT22;15003;47.476;11.990;2022-08-05T02:38:12;26.90;51.80
27561;DHT22;15003;47.476;11.990;2022-08-05T02:40:41;26.90;51.90
27561;DHT22;15003;47.476;11.990;2022-08-05T02:43:12;26.80;51.80
27561;DHT22;15003;47.476;11.990;2022-08-05T02:45:40;26.90;51.90
27561;DHT22;15003;47.476;11.990;2022-08-05T02:48:07;26.80;51.70
27561;DHT22;15003;47.476;11.990;2022-08-05T02:50:34;26.90;51.70
27561;DHT22;15003;47.476;11.990;2022-08-05T02:53:01;26.90;51.80
27561;DHT22;15003;47.476;11.990;2022-08-05T02:55:29;26.80;51.90
27561;DHT22;15003;47.476;11.990;2022-08-05T02:57:56;26.80;51.90
27561;DHT22;15003;47.476;11.990;2022-08-05T03:00:23;26.90;51.90
27561;DHT22;15003;47.476;11.990;2022-08-05T03:02:49;26.90;51.80
27561;DHT22;15003;47.476;11.990;2022-08-05T03:05:16;26.80;51.70
27561;DHT22;15003;47.476;11.990;2022-08-05T03:07:43;26.80;51.80
27561;DHT22;15003;47.476;11.990;2022-08-05T03:10:09;26.80;51.70
27561;DHT22;15003;47.476;11.990;2022-08-05T03:12:37;26.90;51.80
27561;DHT22;15003;47.476;11.990;2022-08-05T03:15:05;26.90;51.80
27561;DHT22;15003;47.476;11.990;2022-08-05T03:17:33;26.80;51.80
27561;DHT22;15003;47.476;11.990;2022-08-05T03:19:59;26.80;51.70
27561;DHT22;15003;47.476;11.990;2022-08-05T03:22:25;26.80;51.80
27561;DHT22;15003;47.476;11.990;2022-08-05T03:24:51;26.80;51.80
27561;DHT22;15003;47.476;11.990;2022-08-05T03:27:18;26.90;52.00
27561;DHT22;15003;47.476;11.990;2022-08-05T03:29:45;26.80;52.00
27561;DHT22;15003;47.476;11.990;2022-08-05T03:32:12;26.80;52.60
27561;DHT22;15003;47.476;11.990;2022-08-05T03:34:38;26.80;52.10
27561;DHT22;15003;47.476;11.990;2022-08-05T03:37:05;26.80;52.30
27561;DHT22;15003;47.476;11.990;2022-08-05T03:39:31;26.80;52.30
27561;DHT22;15003;47.476;11.990;2022-08-05T03:41:57;26.80;52.20
27561;DHT22;15003;47.476;11.990;2022-08-05T03:44:23;26.80;52.30
27561;DHT22;15003;47.476;11.990;2022-08-05T03:46:50;26.80;52.20
27561;DHT22;15003;47.476;11.990;2022-08-05T03:49:16;26.70;52.20
27561;DHT22;15003;47.476;11.990;2022-08-05T03:51:49;26.70;52.30
27561;DHT22;15003;47.476;11.990;2022-08-05T03:57:02;26.70;52.50
27561;DHT22;15003;47.476;11.990;2022-08-05T03:59:54;26.60;52.40
27561;DHT22;15003;47.476;11.990;2022-08-05T04:02:28;26.60;52.80
27561;DHT22;15003;47.476;11.990;2022-08-05T04:04:57;26.60;52.60
27561;DHT22;15003;47.476;11.990;2022-08-05T04:07:24;26.60;52.60
27561;DHT22;15003;47.476;11.990;2022-08-05T04:09:51;26.50;52.50
27561;DHT22;15003;47.476;11.990;2022-08-05T04:12:17;26.50;52.70
27561;DHT22;15003;47.476;11.990;2022-08-05T04:14:43;26.50;52.70
27561;DHT22;15003;47.476;11.990;2022-08-05T04:17:09;26.50;52.80
27561;DHT22;15003;47.476;11.990;2022-08-05T04:19:46;26.50;52.80
27561;DHT22;15003;47.476;11.990;2022-08-05T04:22:13;26.50;53.10
27561;DHT22;15003;47.476;11.990;2022-08-05T04:24:43;26.40;52.90
27561;DHT22;15003;47.476;11.990;2022-08-05T04:27:10;26.40;53.10
27561;DHT22;15003;47.476;11.990;2022-08-05T04:29:39;26.40;53.00
27561;DHT22;15003;47.476;11.990;2022-08-05T04:32:06;26.30;53.00
27561;DHT22;15003;47.476;11.990;2022-08-05T04:34:32;26.30;53.00
27561;DHT22;15003;47.476;11.990;2022-08-05T04:36:58;26.30;53.10
27561;DHT22;15003;47.476;11.990;2022-08-05T04:39:24;26.30;53.10
27561;DHT22;15003;47.476;11.990;2022-08-05T04:41:50;26.30;53.20
27561;DHT22;15003;47.476;11.990;2022-08-05T04:44:16;26.30;53.40
27561;DHT22;15003;47.476;11.990;2022-08-05T04:46:41;26.30;53.50
27561;DHT22;15003;47.476;11.990;2022-08-05T04:49:07;26.30;53.70
27561;DHT22;15003;47.476;11.990;2022-08-05T04:51:33;26.30;53.80
27561;DHT22;15003;47.476;11.990;2022-08-05T04:53:59;26.30;53.70
27561;DHT22;15003;47.476;11.990;2022-08-05T04:56:25;26.40;53.90
27561;DHT22;15003;47.476;11.990;2022-08-05T04:58:51;26.40;53.90
27561;DHT22;15003;47.476;11.990;2022-08-05T05:01:17;26.40;53.90
27561;DHT22;15003;47.476;11.990;2022-08-05T05:03:43;26.50;54.00
27561;DHT22;15003;47.476;11.990;2022-08-05T05:06:12;26.50;54.10
27561;DHT22;15003;47.476;11.990;2022-08-05T05:08:39;26.60;54.30
27561;DHT22;15003;47.476;11.990;2022-08-05T05:11:05;26.60;53.90
27561;DHT22;15003;47.476;11.990;2022-08-05T05:13:31;26.60;53.90
27561;DHT22;15003;47.476;11.990;2022-08-05T05:15:57;26.60;54.00
27561;DHT22;15003;47.476;11.990;2022-08-05T05:18:23;26.70;54.20
27561;DHT22;15003;47.476;11.990;2022-08-05T05:20:49;26.70;54.00
27561;DHT22;15003;47.476;11.990;2022-08-05T05:23:14;26.70;54.10
27561;DHT22;15003;47.476;11.990;2022-08-05T05:25:41;26.80;54.20
27561;DHT22;15003;47.476;11.990;2022-08-05T05:28:09;26.80;54.20
27561;DHT22;15003;47.476;11.990;2022-08-05T05:30:36;26.90;54.10
27561;DHT22;15003;47.476;11.990;2022-08-05T05:33:04;26.90;54.20
27561;DHT22;15003;47.476;11.990;2022-08-05T05:35:31;26.90;54.20
27561;DHT22;15003;47.476;11.990;2022-08-05T05:37:59;27.00;54.20
27561;DHT22;15003;47.476;11.990;2022-08-05T05:40:26;27.00;53.90
27561;DHT22;15003;47.476;11.990;2022-08-05T05:42:52;27.10;53.90
27561;DHT22;15003;47.476;11.990;2022-08-05T05:45:19;27.10;53.70
27561;DHT22;15003;47.476;11.990;2022-08-05T05:47:45;27.20;53.50
27561;DHT22;15003;47.476;11.990;2022-08-05T05:50:14;27.20;53.20
27561;DHT22;15003;47.476;11.990;2022-08-05T05:52:41;27.30;53.00
27561;DHT22;15003;47.476;11.990;2022-08-05T05:55:12;27.30;52.70
27561;DHT22;15003;47.476;11.990;2022-08-05T05:57:40;27.40;52.50
27561;DHT22;15003;47.476;11.990;2022-08-05T06:00:09;27.40;52.40
27561;DHT22;15003;47.476;11.990;2022-08-05T06:02:37;27.40;52.40
27561;DHT22;15003;47.476;11.990;2022-08-05T06:05:03;27.50;52.30
27561;DHT22;15003;47.476;11.990;2022-08-05T06:07:29;27.50;52.30
27561;DHT22;15003;47.476;11.990;2022-08-05T06:09:55;27.50;52.30
27561;DHT22;15003;47.476;11.990;2022-08-05T06:12:20;27.60;52.20
27561;DHT22;15003;47.476;11.990;2022-08-05T06:14:46;27.70;52.20
27561;DHT22;15003;47.476;11.990;2022-08-05T06:17:12;27.80;52.00
27561;DHT22;15003;47.476;11.990;2022-08-05T06:19:38;27.80;51.80
27561;DHT22;15003;47.476;11.990;2022-08-05T06:22:04;27.90;51.70
27561;DHT22;15003;47.476;11.990;2022-08-05T06:24:31;27.90;51.50
27561;DHT22;15003;47.476;11.990;2022-08-05T06:26:58;27.90;51.40
27561;DHT22;15003;47.476;11.990;2022-08-05T06:29:24;28.00;51.20
27561;DHT22;15003;47.476;11.990;2022-08-05T06:31:50;28.10;51.10
27561;DHT22;15003;47.476;11.990;2022-08-05T06:34:16;28.10;51.00
27561;DHT22;15003;47.476;11.990;2022-08-05T06:36:42;28.20;50.90
27561;DHT22;15003;47.476;11.990;2022-08-05T06:39:08;28.30;51.00
27561;DHT22;15003;47.476;11.990;2022-08-05T06:41:34;28.30;50.90
27561;DHT22;15003;47.476;11.990;2022-08-05T06:44:00;28.40;50.70
27561;DHT22;15003;47.476;11.990;2022-08-05T06:46:26;28.40;50.30
27561;DHT22;15003;47.476;11.990;2022-08-05T06:48:52;28.50;50.50
27561;DHT22;15003;47.476;11.990;2022-08-05T06:51:17;28.50;50.40
27561;DHT22;15003;47.476;11.990;2022-08-05T06:53:43;28.60;50.20
27561;DHT22;15003;47.476;11.990;2022-08-05T06:56:09;28.70;50.20
27561;DHT22;15003;47.476;11.990;2022-08-05T06:58:35;28.70;50.10
27561;DHT22;15003;47.476;11.990;2022-08-05T07:01:03;28.80;50.10
27561;DHT22;15003;47.476;11.990;2022-08-05T07:03:30;28.90;50.10
27561;DHT22;15003;47.476;11.990;2022-08-05T07:05:56;28.90;50.20
27561;DHT22;15003;47.476;11.990;2022-08-05T07:08:21;28.90;50.20
27561;DHT22;15003;47.476;11.990;2022-08-05T07:10:47;29.00;50.10
27561;DHT22;15003;47.476;11.990;2022-08-05T07:13:13;29.10;50.10
27561;DHT22;15003;47.476;11.990;2022-08-05T07:15:39;29.20;50.20
27561;DHT22;15003;47.476;11.990;2022-08-05T07:18:05;29.20;50.00
27561;DHT22;15003;47.476;11.990;2022-08-05T07:20:31;29.20;49.90
27561;DHT22;15003;47.476;11.990;2022-08-05T07:22:56;29.20;49.70
27561;DHT22;15003;47.476;11.990;2022-08-05T07:25:22;29.30;49.50
27561;DHT22;15003;47.476;11.990;2022-08-05T07:27:49;29.40;49.00
27561;DHT22;15003;47.476;11.990;2022-08-05T07:30:17;29.40;48.80
27561;DHT22;15003;47.476;11.990;2022-08-05T07:32:43;29.50;48.80
27561;DHT22;15003;47.476;11.990;2022-08-05T07:35:12;29.50;48.50
27561;DHT22;15003;47.476;11.990;2022-08-05T07:37:39;29.50;48.40
27561;DHT22;15003;47.476;11.990;2022-08-05T07:40:06;29.50;48.50
27561;DHT22;15003;47.476;11.990;2022-08-05T07:42:33;29.60;48.70
27561;DHT22;15003;47.476;11.990;2022-08-05T07:44:59;29.60;48.50
27561;DHT22;15003;47.476;11.990;2022-08-05T07:47:24;29.70;48.50
27561;DHT22;15003;47.476;11.990;2022-08-05T07:49:50;29.70;48.50
27561;DHT22;15003;47.476;11.990;2022-08-05T07:52:16;29.80;48.90
27561;DHT22;15003;47.476;11.990;2022-08-05T07:54:43;29.80;48.90
27561;DHT22;15003;47.476;11.990;2022-08-05T07:57:08;29.90;48.30
27561;DHT22;15003;47.476;11.990;2022-08-05T07:59:34;30.00;48.20
27561;DHT22;15003;47.476;11.990;2022-08-05T08:02:00;30.00;47.90
27561;DHT22;15003;47.476;11.990;2022-08-05T08:04:26;30.10;47.70
27561;DHT22;15003;47.476;11.990;2022-08-05T08:06:51;30.20;47.70
27561;DHT22;15003;47.476;11.990;2022-08-05T08:09:17;30.20;47.50
27561;DHT22;15003;47.476;11.990;2022-08-05T08:11:43;30.30;47.50
27561;DHT22;15003;47.476;11.990;2022-08-05T08:14:09;30.40;47.10
27561;DHT22;15003;47.476;11.990;2022-08-05T08:16:34;30.50;46.90
27561;DHT22;15003;47.476;11.990;2022-08-05T08:19:00;30.50;47.10
27561;DHT22;15003;47.476;11.990;2022-08-05T08:21:26;30.60;47.20
27561;DHT22;15003;47.476;11.990;2022-08-05T08:23:52;30.70;46.90
27561;DHT22;15003;47.476;11.990;2022-08-05T08:26:17;30.80;46.80
27561;DHT22;15003;47.476;11.990;2022-08-05T08:28:43;30.90;46.80
27561;DHT22;15003;47.476;11.990;2022-08-05T08:31:09;30.90;47.00
27561;DHT22;15003;47.476;11.990;2022-08-05T08:33:35;31.10;47.50
27561;DHT22;15003;47.476;11.990;2022-08-05T08:36:00;31.10;47.20
27561;DHT22;15003;47.476;11.990;2022-08-05T08:38:26;31.30;47.20
27561;DHT22;15003;47.476;11.990;2022-08-05T08:40:52;31.40;47.00
27561;DHT22;15003;47.476;11.990;2022-08-05T08:43:18;31.50;47.10
27561;DHT22;15003;47.476;11.990;2022-08-05T08:45:45;31.60;47.20
27561;DHT22;15003;47.476;11.990;2022-08-05T08:48:14;31.80;47.20
27561;DHT22;15003;47.476;11.990;2022-08-05T08:50:42;31.90;46.30
27561;DHT22;15003;47.476;11.990;2022-08-05T08:53:10;32.00;46.40
27561;DHT22;15003;47.476;11.990;2022-08-05T08:55:39;32.10;46.20
27561;DHT22;15003;47.476;11.990;2022-08-05T08:58:06;32.20;46.10
27561;DHT22;15003;47.476;11.990;2022-08-05T09:00:32;32.30;45.70
27561;DHT22;15003;47.476;11.990;2022-08-05T09:02:58;32.40;45.50
27561;DHT22;15003;47.476;11.990;2022-08-05T09:05:25;32.40;45.60
27561;DHT22;15003;47.476;11.990;2022-08-05T09:07:52;32.40;45.60
27561;DHT22;15003;47.476;11.990;2022-08-05T09:10:19;32.50;45.30
27561;DHT22;15003;47.476;11.990;2022-08-05T09:12:45;32.60;45.20
27561;DHT22;15003;47.476;11.990;2022-08-05T09:15:11;32.70;45.20
27561;DHT22;15003;47.476;11.990;2022-08-05T09:17:39;32.70;45.20
27561;DHT22;15003;47.476;11.990;2022-08-05T09:20:06;32.80;45.20
27561;DHT22;15003;47.476;11.990;2022-08-05T09:23:04;32.90;44.90
27561;DHT22;15003;47.476;11.990;2022-08-05T09:25:42;33.10;45.20
27561;DHT22;15003;47.476;11.990;2022-08-05T09:28:20;33.20;45.00
27561;DHT22;15003;47.476;11.990;2022-08-05T09:30:55;33.30;44.60
27561;DHT22;15003;47.476;11.990;2022-08-05T09:33:23;33.40;44.40
27561;DHT22;15003;47.476;11.990;2022-08-05T09:35:58;33.60;43.50
27561;DHT22;15003;47.476;11.990;2022-08-05T09:38:29;33.70;43.60
27561;DHT22;15003;47.476;11.990;2022-08-05T09:41:06;33.80;43.50
27561;DHT22;15003;47.476;11.990;2022-08-05T09:43:34;34.00;42.90
27561;DHT22;15003;47.476;11.990;2022-08-05T09:46:03;34.10;42.80
27561;DHT22;15003;47.476;11.990;2022-08-05T09:48:32;34.20;42.50
27561;DHT22;15003;47.476;11.990;2022-08-05T09:51:03;34.30;42.50
27561;DHT22;15003;47.476;11.990;2022-08-05T09:53:51;34.40;42.30
27561;DHT22;15003;47.476;11.990;2022-08-05T09:59:04;34.60;41.90
27561;DHT22;15003;47.476;11.990;2022-08-05T10:01:36;34.80;41.30
27561;DHT22;15003;47.476;11.990;2022-08-05T10:04:05;34.90;41.40
27561;DHT22;15003;47.476;11.990;2022-08-05T10:06:33;35.00;40.90
27561;DHT22;15003;47.476;11.990;2022-08-05T10:09:25;35.10;40.60
27561;DHT22;15003;47.476;11.990;2022-08-05T10:11:51;35.20;40.50
27561;DHT22;15003;47.476;11.990;2022-08-05T10:14:28;35.30;40.40
27561;DHT22;15003;47.476;11.990;2022-08-05T10:16:58;35.50;40.50
27561;DHT22;15003;47.476;11.990;2022-08-05T10:19:37;35.50;39.10
27561;DHT22;15003;47.476;11.990;2022-08-05T10:22:03;35.60;39.30
27561;DHT22;15003;47.476;11.990;2022-08-05T10:24:31;35.70;39.40
27561;DHT22;15003;47.476;11.990;2022-08-05T10:26:58;35.80;39.80
27561;DHT22;15003;47.476;11.990;2022-08-05T10:29:24;35.80;39.90
27561;DHT22;15003;47.476;11.990;2022-08-05T10:31:50;35.90;39.90
27561;DHT22;15003;47.476;11.990;2022-08-05T10:34:16;36.00;39.80
27561;DHT22;15003;47.476;11.990;2022-08-05T10:36:43;36.00;39.70
27561;DHT22;15003;47.476;11.990;2022-08-05T10:39:32;36.20;37.60
27561;DHT22;15003;47.476;11.990;2022-08-05T10:42:19;36.30;37.90
27561;DHT22;15003;47.476;11.990;2022-08-05T10:44:47;36.30;36.60
27561;DHT22;15003;47.476;11.990;2022-08-05T10:47:14;36.40;37.50
27561;DHT22;15003;47.476;11.990;2022-08-05T10:52:40;36.50;37.20
27561;DHT22;15003;47.476;11.990;2022-08-05T10:55:15;36.50;36.70
27561;DHT22;15003;47.476;11.990;2022-08-05T10:57:41;36.60;37.10
27561;DHT22;15003;47.476;11.990;2022-08-05T11:00:20;36.60;36.70
27561;DHT22;15003;47.476;11.990;2022-08-05T11:05:32;36.60;36.70
27561;DHT22;15003;47.476;11.990;2022-08-05T11:08:00;36.60;36.40
27561;DHT22;15003;47.476;11.990;2022-08-05T11:10:29;36.60;37.10
27561;DHT22;15003;47.476;11.990;2022-08-05T11:12:57;36.70;37.20
27561;DHT22;15003;47.476;11.990;2022-08-05T11:15:32;36.70;36.80
27561;DHT22;15003;47.476;11.990;2022-08-05T11:20:49;36.90;36.20
27561;DHT22;15003;47.476;11.990;2022-08-05T11:23:50;37.00;35.80
27561;DHT22;15003;47.476;11.990;2022-08-05T11:28:45;37.10;35.80
27561;DHT22;15003;47.476;11.990;2022-08-05T11:36:17;37.40;33.60
27561;DHT22;15003;47.476;11.990;2022-08-05T11:41:20;37.60;33.50
27561;DHT22;15003;47.476;11.990;2022-08-05T11:46:32;37.60;33.10
27561;DHT22;15003;47.476;11.990;2022-08-05T11:49:00;37.50;32.90
27561;DHT22;15003;47.476;11.990;2022-08-05T11:51:28;37.50;32.90
27561;DHT22;15003;47.476;11.990;2022-08-05T11:53:55;37.40;32.60
27561;DHT22;15003;47.476;11.990;2022-08-05T11:56:21;37.20;33.00
27561;DHT22;15003;47.476;11.990;2022-08-05T11:58:49;37.20;33.50
27561;DHT22;15003;47.476;11.990;2022-08-05T12:01:19;37.10;33.60
27561;DHT22;15003;47.476;11.990;2022-08-05T12:03:47;37.10;34.30
27561;DHT22;15003;47.476;11.990;2022-08-05T12:06:20;37.10;33.90
27561;DHT22;15003;47.476;11.990;2022-08-05T12:08:51;37.10;34.00
27561;DHT22;15003;47.476;11.990;2022-08-05T12:11:26;37.00;33.40
27561;DHT22;15003;47.476;11.990;2022-08-05T12:13:57;36.90;32.20
27561;DHT22;15003;47.476;11.990;2022-08-05T12:16:26;36.80;32.30
27561;DHT22;15003;47.476;11.990;2022-08-05T12:18:54;36.70;32.80
27561;DHT22;15003;47.476;11.990;2022-08-05T12:21:25;36.50;33.30
27561;DHT22;15003;47.476;11.990;2022-08-05T12:24:02;36.30;33.30
27561;DHT22;15003;47.476;11.990;2022-08-05T12:26:33;36.10;33.90
27561;DHT22;15003;47.476;11.990;2022-08-05T12:29:02;35.90;34.40
27561;DHT22;15003;47.476;11.990;2022-08-05T12:31:31;35.70;34.80
27561;DHT22;15003;47.476;11.990;2022-08-05T12:33:57;35.70;35.20
27561;DHT22;15003;47.476;11.990;2022-08-05T12:36:23;35.50;35.40
27561;DHT22;15003;47.476;11.990;2022-08-05T12:38:49;35.50;35.70
27561;DHT22;15003;47.476;11.990;2022-08-05T12:41:15;35.40;35.70
27561;DHT22;15003;47.476;11.990;2022-08-05T12:44:02;35.40;35.90
27561;DHT22;15003;47.476;11.990;2022-08-05T12:46:31;35.30;35.70
27561;DHT22;15003;47.476;11.990;2022-08-05T12:49:12;35.30;36.20
27561;DHT22;15003;47.476;11.990;2022-08-05T12:51:45;35.30;36.50
27561;DHT22;15003;47.476;11.990;2022-08-05T12:54:28;35.30;36.90
27561;DHT22;15003;47.476;11.990;2022-08-05T12:57:06;35.40;36.80
27561;DHT22;15003;47.476;11.990;2022-08-05T12:59:43;35.50;36.80
27561;DHT22;15003;47.476;11.990;2022-08-05T13:02:11;35.60;36.60
27561;DHT22;15003;47.476;11.990;2022-08-05T13:04:39;35.70;36.50
27561;DHT22;15003;47.476;11.990;2022-08-05T13:07:12;35.80;35.80
27561;DHT22;15003;47.476;11.990;2022-08-05T13:09:41;35.80;35.00
27561;DHT22;15003;47.476;11.990;2022-08-05T13:12:14;35.90;35.70
27561;DHT22;15003;47.476;11.990;2022-08-05T13:14:43;35.90;35.60
27561;DHT22;15003;47.476;11.990;2022-08-05T13:17:30;35.90;35.80
27561;DHT22;15003;47.476;11.990;2022-08-05T13:20:05;35.90;35.40
27561;DHT22;15003;47.476;11.990;2022-08-05T13:22:38;35.90;36.10
27561;DHT22;15003;47.476;11.990;2022-08-05T13:25:11;35.80;36.10
27561;DHT22;15003;47.476;11.990;2022-08-05T13:27:41;35.90;36.00
27561;DHT22;15003;47.476;11.990;2022-08-05T13:30:10;35.90;36.30
27561;DHT22;15003;47.476;11.990;2022-08-05T13:32:37;36.00;36.30
27561;DHT22;15003;47.476;11.990;2022-08-05T13:35:03;36.20;36.30
27561;DHT22;15003;47.476;11.990;2022-08-05T13:37:29;36.30;36.00
27561;DHT22;15003;47.476;11.990;2022-08-05T13:39:55;36.40;35.50
27561;DHT22;15003;47.476;11.990;2022-08-05T13:42:22;36.40;34.40
27561;DHT22;15003;47.476;11.990;2022-08-05T13:44:55;36.50;34.00
27561;DHT22;15003;47.476;11.990;2022-08-05T13:47:22;36.40;33.70
27561;DHT22;15003;47.476;11.990;2022-08-05T13:49:49;36.30;34.00
27561;DHT22;15003;47.476;11.990;2022-08-05T13:54:47;36.10;34.20
27561;DHT22;15003;47.476;11.990;2022-08-05T13:57:14;36.00;34.30
27561;DHT22;15003;47.476;11.990;2022-08-05T13:59:42;35.90;34.50
27561;DHT22;15003;47.476;11.990;2022-08-05T14:02:09;35.80;34.70
27561;DHT22;15003;47.476;11.990;2022-08-05T14:04:42;35.60;34.70
27561;DHT22;15003;47.476;11.990;2022-08-05T14:07:09;35.50;34.70
27561;DHT22;15003;47.476;11.990;2022-08-05T14:09:35;35.50;34.90
27561;DHT22;15003;47.476;11.990;2022-08-05T14:12:01;35.40;35.10
27561;DHT22;15003;47.476;11.990;2022-08-05T14:14:26;35.20;35.40
27561;DHT22;15003;47.476;11.990;2022-08-05T14:16:52;35.20;35.70
27561;DHT22;15003;47.476;11.990;2022-08-05T14:19:18;35.10;35.70
27561;DHT22;15003;47.476;11.990;2022-08-05T14:21:44;35.00;35.70
27561;DHT22;15003;47.476;11.990;2022-08-05T14:24:10;34.90;35.90
27561;DHT22;15003;47.476;11.990;2022-08-05T14:26:36;34.70;35.90
27561;DHT22;15003;47.476;11.990;2022-08-05T14:29:03;34.70;36.40
27561;DHT22;15003;47.476;11.990;2022-08-05T14:31:30;34.60;36.50
27561;DHT22;15003;47.476;11.990;2022-08-05T14:33:56;34.60;36.90
27561;DHT22;15003;47.476;11.990;2022-08-05T14:36:22;34.50;36.90
27561;DHT22;15003;47.476;11.990;2022-08-05T14:38:48;34.40;36.70
27561;DHT22;15003;47.476;11.990;2022-08-05T14:41:15;34.30;37.00
27561;DHT22;15003;47.476;11.990;2022-08-05T14:43:40;34.20;37.10
27561;DHT22;15003;47.476;11.990;2022-08-05T14:46:06;34.00;37.00
27561;DHT22;15003;47.476;11.990;2022-08-05T14:48:32;33.80;37.30
27561;DHT22;15003;47.476;11.990;2022-08-05T14:50:58;33.60;37.50
27561;DHT22;15003;47.476;11.990;2022-08-05T14:53:23;33.30;37.80
27561;DHT22;15003;47.476;11.990;2022-08-05T14:55:49;33.10;38.20
27561;DHT22;15003;47.476;11.990;2022-08-05T14:58:15;32.90;38.30
27561;DHT22;15003;47.476;11.990;2022-08-05T15:00:41;32.70;38.80
27561;DHT22;15003;47.476;11.990;2022-08-05T15:03:07;32.50;39.10
27561;DHT22;15003;47.476;11.990;2022-08-05T15:05:33;32.30;39.60
27561;DHT22;15003;47.476;11.990;2022-08-05T15:08:00;32.10;39.90
27561;DHT22;15003;47.476;11.990;2022-08-05T15:10:27;31.90;40.20
27561;DHT22;15003;47.476;11.990;2022-08-05T15:12:54;31.70;40.50
27561;DHT22;15003;47.476;11.990;2022-08-05T15:15:19;31.60;41.00
27561;DHT22;15003;47.476;11.990;2022-08-05T15:17:45;31.40;41.40
27561;DHT22;15003;47.476;11.990;2022-08-05T15:20:11;31.20;41.60
27561;DHT22;15003;47.476;11.990;2022-08-05T15:22:38;31.00;42.10
27561;DHT22;15003;47.476;11.990;2022-08-05T15:25:05;30.80;42.40
27561;DHT22;15003;47.476;11.990;2022-08-05T15:27:31;30.60;42.70
27561;DHT22;15003;47.476;11.990;2022-08-05T15:29:57;30.50;43.20
27561;DHT22;15003;47.476;11.990;2022-08-05T15:32:24;30.30;43.50
27561;DHT22;15003;47.476;11.990;2022-08-05T15:34:50;30.30;43.90
27561;DHT22;15003;47.476;11.990;2022-08-05T15:37:16;30.20;44.20
27561;DHT22;15003;47.476;11.990;2022-08-05T15:39:42;30.00;44.70
27561;DHT22;15003;47.476;11.990;2022-08-05T15:42:09;29.90;45.00
27561;DHT22;15003;47.476;11.990;2022-08-05T15:44:39;29.80;45.40
27561;DHT22;15003;47.476;11.990;2022-08-05T15:47:05;29.70;46.10
27561;DHT22;15003;47.476;11.990;2022-08-05T15:49:31;29.60;46.10
27561;DHT22;15003;47.476;11.990;2022-08-05T15:51:57;29.50;46.30
27561;DHT22;15003;47.476;11.990;2022-08-05T15:54:23;29.40;46.70
27561;DHT22;15003;47.476;11.990;2022-08-05T15:56:49;29.30;47.00
27561;DHT22;15003;47.476;11.990;2022-08-05T15:59:15;29.30;47.20
27561;DHT22;15003;47.476;11.990;2022-08-05T16:01:41;29.20;47.40
27561;DHT22;15003;47.476;11.990;2022-08-05T16:04:07;29.20;47.70
27561;DHT22;15003;47.476;11.990;2022-08-05T16:06:33;29.10;48.00
27561;DHT22;15003;47.476;11.990;2022-08-05T16:08:59;29.10;48.10